Ever Delight — 3FCB8 — position and weather

sailwx.info

Track history (hours):
 
Tides and Currents Weather Stations Pressure Air Temp Water Temp Dewpoint Dewpoint Depression Visibility Wind Speed Wind Dir Waves Ship Positions

Ever Delight

Last reported at 2016-Jan-30 22:32 UTC. Time now 2016-Feb-08 21:22 UTC.
Position N 39°30' W 073°53'.
Warning: this ship's position is 8 days out of date.

Type: Cargo ship. MMSI: 351936000.

Date/timePositionNaut miles runAvg speedWind from/ knotsBaromVisibWave heightAir tempDewpointWater temp
2016-Jan-30 22:32N 39°30' W 073°53'2020.4
2016-Jan-30 21:33N 39°50' W 073°51'3112.8
2016-Jan-30 19:08N 40°21' W 073°48'5 8.0
2016-Jan-30 18:32N 40°26' W 073°49'9 9.6
2016-Jan-30 17:33N 40°31' W 073°59'10 9.7
2016-Jan-30 16:33N 40°39' W 074°07'2 2.3
2016-Jan-30 15:33N 40°41' W 074°09'0 0.0
2016-Jan-30 14:33N 40°41' W 074°09'0 0.0
2016-Jan-30 13:33N 40°41' W 074°09'0 0.0
2016-Jan-30 12:33N 40°41' W 074°09'0 0.0
2016-Jan-30 11:33N 40°41' W 074°09'0 0.0
2016-Jan-30 10:33N 40°41' W 074°09'0 0.0
2016-Jan-30 09:33N 40°41' W 074°09'0 0.0
2016-Jan-30 08:33N 40°41' W 074°09'0 0.0
2016-Jan-30 07:33N 40°41' W 074°09'0 0.0
2016-Jan-30 06:33N 40°41' W 074°09'0 0.0
2016-Jan-30 05:33N 40°41' W 074°09'0 0.0
2016-Jan-30 04:30N 40°41' W 074°09'0 0.0
2016-Jan-30 03:33N 40°41' W 074°09'0 0.0
2016-Jan-30 02:33N 40°41' W 074°09'0 0.0
2016-Jan-30 01:33N 40°41' W 074°09'0 0.0
2016-Jan-30 00:33N 40°41' W 074°09'0 0.0
2016-Jan-29 23:33N 40°41' W 074°09'0 0.0
2016-Jan-29 22:33N 40°41' W 074°09'0 0.0
2016-Jan-29 21:33N 40°41' W 074°09'0 0.0
2016-Jan-29 20:33N 40°41' W 074°09'0 0.0
2016-Jan-29 19:33N 40°41' W 074°09'0 0.0
2016-Jan-29 18:33N 40°41' W 074°09'0 0.0
2016-Jan-29 17:33N 40°41' W 074°09'1 0.9
2016-Jan-29 16:33N 40°40' W 074°09'5 4.9
2016-Jan-29 15:33N 40°37' W 074°03'1211.7
2016-Jan-29 14:33N 40°29' W 073°53'7 6.6
2016-Jan-29 13:33N 40°24' W 073°47'6 5.6
2016-Jan-29 12:32N 40°18' W 073°46'19 8.6
2016-Jan-29 10:21N 39°59' W 073°43'1417.2
2016-Jan-29 09:33N 39°45' W 073°42'2120.3
2016-Jan-29 08:31N 39°25' W 073°48'6120.5
2016-Jan-29 05:33N 38°29' W 074°19'2120.8
2016-Jan-29 04:32N 38°10' W 074°32'11213.2
2016-Jan-28 20:03N 36°58' W 076°20'5 9.9
2016-Jan-28 19:33N 36°53' W 076°20'1 1.1
2016-Jan-28 18:33N 36°52' W 076°21'0 0.0
2016-Jan-28 17:33N 36°52' W 076°21'0 0.0
2016-Jan-28 16:33N 36°52' W 076°21'0 0.0
2016-Jan-28 15:33N 36°52' W 076°21'0 0.0
2016-Jan-28 14:33N 36°52' W 076°21'0 0.0
2016-Jan-28 13:33N 36°52' W 076°21'0 0.0
2016-Jan-28 12:33N 36°52' W 076°21'2 1.7
2016-Jan-28 11:33N 36°54' W 076°20'8 8.5
2016-Jan-28 10:34N 37°00' W 076°13'6813.1
2016-Jan-28 05:23N 38°08' W 076°13'2220.5
2016-Jan-28 04:20N 38°28' W 076°23'1519.4
2016-Jan-28 03:33N 38°43' W 076°26'1716.1
2016-Jan-28 02:31N 38°59' W 076°23'1212.0
2016-Jan-28 01:29N 39°11' W 076°28'6 6.3
2016-Jan-28 00:33N 39°15' W 076°33'0 0.4
2016-Jan-27 23:19N 39°15' W 076°33'0 0.0
2016-Jan-27 22:16N 39°15' W 076°33'0 0.0
2016-Jan-27 21:19N 39°15' W 076°33'0 0.0
2016-Jan-27 20:31N 39°15' W 076°33'0 0.0
2016-Jan-27 19:07N 39°15' W 076°33'0 0.0
2016-Jan-27 16:24N 39°15' W 076°33'0 0.0
2016-Jan-27 15:25N 39°15' W 076°33'0 0.0
2016-Jan-27 14:27N 39°15' W 076°33'0 0.0
2016-Jan-27 13:33N 39°15' W 076°33'0 0.0
2016-Jan-27 08:22N 39°15' W 076°33'0 0.0
2016-Jan-27 07:31N 39°15' W 076°33'0 0.0
2016-Jan-27 06:28N 39°15' W 076°33'0 0.0
2016-Jan-27 05:25N 39°15' W 076°33'0 0.0
2016-Jan-27 04:24N 39°15' W 076°33'0 0.0
2016-Jan-27 03:33N 39°15' W 076°33'0 0.0
2016-Jan-27 02:33N 39°15' W 076°33'0 0.0
2016-Jan-27 01:33N 39°15' W 076°33'0 0.0
2016-Jan-27 00:33N 39°15' W 076°33'0 0.0
2016-Jan-26 23:33N 39°15' W 076°33'0 0.0
2016-Jan-26 22:33N 39°15' W 076°33'0 0.0
2016-Jan-26 21:33N 39°15' W 076°33'0 0.0
2016-Jan-26 20:33N 39°15' W 076°33'0 0.0
2016-Jan-26 19:33N 39°15' W 076°33'0 0.0
2016-Jan-26 18:33N 39°15' W 076°33'0 0.0
2016-Jan-26 17:33N 39°15' W 076°33'0 0.0
2016-Jan-26 16:31N 39°15' W 076°33'0 0.0
2016-Jan-26 15:31N 39°15' W 076°33'0 0.0
2016-Jan-26 14:31N 39°15' W 076°33'0 0.0
2016-Jan-26 13:31N 39°15' W 076°33'0 0.0
2016-Jan-26 12:31N 39°15' W 076°33'0 0.0
2016-Jan-26 11:31N 39°15' W 076°33'0 0.0
2016-Jan-26 10:31N 39°15' W 076°33'0 0.0
2016-Jan-26 09:31N 39°15' W 076°33'0 0.0
2016-Jan-26 08:31N 39°15' W 076°33'0 0.0
2016-Jan-26 07:31N 39°15' W 076°33'0 0.0
2016-Jan-26 06:31N 39°15' W 076°33'0 0.0
2016-Jan-26 05:31N 39°15' W 076°33'0 0.0
2016-Jan-26 04:31N 39°15' W 076°33'0 0.0
2016-Jan-26 03:31N 39°15' W 076°33'0 0.0
2016-Jan-26 02:31N 39°15' W 076°33'0 0.0
2016-Jan-26 01:33N 39°15' W 076°33'0 0.0
2016-Jan-26 00:31N 39°15' W 076°33'0 0.0
2016-Jan-25 23:31N 39°15' W 076°33'0 0.0
2016-Jan-25 22:31N 39°15' W 076°33'0 0.0
2016-Jan-25 21:31N 39°15' W 076°33'0 0.0
2016-Jan-25 20:33N 39°15' W 076°33'0 0.0
2016-Jan-25 19:33N 39°15' W 076°33'0 0.0
2016-Jan-25 18:33N 39°15' W 076°33'0 0.0
2016-Jan-25 17:33N 39°15' W 076°33'0 0.0
2016-Jan-25 16:33N 39°15' W 076°33'1 1.3
2016-Jan-25 15:34N 39°14' W 076°33'8 7.9
2016-Jan-25 14:34N 39°09' W 076°25'1313.1
2016-Jan-25 13:33N 38°56' W 076°23'1919.4
2016-Jan-25 12:33N 38°37' W 076°25'2120.0
2016-Jan-25 11:30N 38°17' W 076°17'1920.3
2016-Jan-25 10:33N 37°58' W 076°11'5617.4
2016-Jan-25 07:20N 37°03' W 076°04'  
Track history (hours):
 
Tides and Currents Weather Stations Pressure Air Temp Water Temp Dewpoint Dewpoint Depression Visibility Wind Speed Wind Dir Waves Ship Positions

Ever Delight

Last reported at 2016-Jan-30 22:32 UTC. Time now 2016-Feb-08 21:22 UTC.
Position N 39°30' W 073°53'.
Warning: this ship's position is 8 days out of date.

Type: Cargo ship. MMSI: 351936000.

Date/timePositionNaut miles runAvg speedWind from/ knotsBaromVisibWave heightAir tempDewpointWater temp
2016-Jan-30 22:32N 39°30' W 073°53'2020.4
2016-Jan-30 21:33N 39°50' W 073°51'3112.8
2016-Jan-30 19:08N 40°21' W 073°48'5 8.0
2016-Jan-30 18:32N 40°26' W 073°49'9 9.6
2016-Jan-30 17:33N 40°31' W 073°59'10 9.7
2016-Jan-30 16:33N 40°39' W 074°07'2 2.3
2016-Jan-30 15:33N 40°41' W 074°09'0 0.0
2016-Jan-30 14:33N 40°41' W 074°09'0 0.0
2016-Jan-30 13:33N 40°41' W 074°09'0 0.0
2016-Jan-30 12:33N 40°41' W 074°09'0 0.0
2016-Jan-30 11:33N 40°41' W 074°09'0 0.0
2016-Jan-30 10:33N 40°41' W 074°09'0 0.0
2016-Jan-30 09:33N 40°41' W 074°09'0 0.0
2016-Jan-30 08:33N 40°41' W 074°09'0 0.0
2016-Jan-30 07:33N 40°41' W 074°09'0 0.0
2016-Jan-30 06:33N 40°41' W 074°09'0 0.0
2016-Jan-30 05:33N 40°41' W 074°09'0 0.0
2016-Jan-30 04:30N 40°41' W 074°09'0 0.0
2016-Jan-30 03:33N 40°41' W 074°09'0 0.0
2016-Jan-30 02:33N 40°41' W 074°09'0 0.0
2016-Jan-30 01:33N 40°41' W 074°09'0 0.0
2016-Jan-30 00:33N 40°41' W 074°09'0 0.0
2016-Jan-29 23:33N 40°41' W 074°09'0 0.0
2016-Jan-29 22:33N 40°41' W 074°09'0 0.0
2016-Jan-29 21:33N 40°41' W 074°09'0 0.0
2016-Jan-29 20:33N 40°41' W 074°09'0 0.0
2016-Jan-29 19:33N 40°41' W 074°09'0 0.0
2016-Jan-29 18:33N 40°41' W 074°09'0 0.0
2016-Jan-29 17:33N 40°41' W 074°09'1 0.9
2016-Jan-29 16:33N 40°40' W 074°09'5 4.9
2016-Jan-29 15:33N 40°37' W 074°03'1211.7
2016-Jan-29 14:33N 40°29' W 073°53'7 6.6
2016-Jan-29 13:33N 40°24' W 073°47'6 5.6
2016-Jan-29 12:32N 40°18' W 073°46'19 8.6
2016-Jan-29 10:21N 39°59' W 073°43'1417.2
2016-Jan-29 09:33N 39°45' W 073°42'2120.3
2016-Jan-29 08:31N 39°25' W 073°48'6120.5
2016-Jan-29 05:33N 38°29' W 074°19'2120.8
2016-Jan-29 04:32N 38°10' W 074°32'11213.2
2016-Jan-28 20:03N 36°58' W 076°20'5 9.9
2016-Jan-28 19:33N 36°53' W 076°20'1 1.1
2016-Jan-28 18:33N 36°52' W 076°21'0 0.0
2016-Jan-28 17:33N 36°52' W 076°21'0 0.0
2016-Jan-28 16:33N 36°52' W 076°21'0 0.0
2016-Jan-28 15:33N 36°52' W 076°21'0 0.0
2016-Jan-28 14:33N 36°52' W 076°21'0 0.0
2016-Jan-28 13:33N 36°52' W 076°21'0 0.0
2016-Jan-28 12:33N 36°52' W 076°21'2 1.7
2016-Jan-28 11:33N 36°54' W 076°20'8 8.5
2016-Jan-28 10:34N 37°00' W 076°13'6813.1
2016-Jan-28 05:23N 38°08' W 076°13'2220.5
2016-Jan-28 04:20N 38°28' W 076°23'1519.4
2016-Jan-28 03:33N 38°43' W 076°26'1716.1
2016-Jan-28 02:31N 38°59' W 076°23'1212.0
2016-Jan-28 01:29N 39°11' W 076°28'6 6.3
2016-Jan-28 00:33N 39°15' W 076°33'0 0.4
2016-Jan-27 23:19N 39°15' W 076°33'0 0.0
2016-Jan-27 22:16N 39°15' W 076°33'0 0.0
2016-Jan-27 21:19N 39°15' W 076°33'0 0.0
2016-Jan-27 20:31N 39°15' W 076°33'0 0.0
2016-Jan-27 19:07N 39°15' W 076°33'0 0.0
2016-Jan-27 16:24N 39°15' W 076°33'0 0.0
2016-Jan-27 15:25N 39°15' W 076°33'0 0.0
2016-Jan-27 14:27N 39°15' W 076°33'0 0.0
2016-Jan-27 13:33N 39°15' W 076°33'0 0.0
2016-Jan-27 08:22N 39°15' W 076°33'0 0.0
2016-Jan-27 07:31N 39°15' W 076°33'0 0.0
2016-Jan-27 06:28N 39°15' W 076°33'0 0.0
2016-Jan-27 05:25N 39°15' W 076°33'0 0.0
2016-Jan-27 04:24N 39°15' W 076°33'0 0.0
2016-Jan-27 03:33N 39°15' W 076°33'0 0.0
2016-Jan-27 02:33N 39°15' W 076°33'0 0.0
2016-Jan-27 01:33N 39°15' W 076°33'0 0.0
2016-Jan-27 00:33N 39°15' W 076°33'0 0.0
2016-Jan-26 23:33N 39°15' W 076°33'0 0.0
2016-Jan-26 22:33N 39°15' W 076°33'0 0.0
2016-Jan-26 21:33N 39°15' W 076°33'0 0.0
2016-Jan-26 20:33N 39°15' W 076°33'0 0.0
2016-Jan-26 19:33N 39°15' W 076°33'0 0.0
2016-Jan-26 18:33N 39°15' W 076°33'0 0.0
2016-Jan-26 17:33N 39°15' W 076°33'0 0.0
2016-Jan-26 16:31N 39°15' W 076°33'0 0.0
2016-Jan-26 15:31N 39°15' W 076°33'0 0.0
2016-Jan-26 14:31N 39°15' W 076°33'0 0.0
2016-Jan-26 13:31N 39°15' W 076°33'0 0.0
2016-Jan-26 12:31N 39°15' W 076°33'0 0.0
2016-Jan-26 11:31N 39°15' W 076°33'0 0.0
2016-Jan-26 10:31N 39°15' W 076°33'0 0.0
2016-Jan-26 09:31N 39°15' W 076°33'0 0.0
2016-Jan-26 08:31N 39°15' W 076°33'0 0.0
2016-Jan-26 07:31N 39°15' W 076°33'0 0.0
2016-Jan-26 06:31N 39°15' W 076°33'0 0.0
2016-Jan-26 05:31N 39°15' W 076°33'0 0.0
2016-Jan-26 04:31N 39°15' W 076°33'0 0.0
2016-Jan-26 03:31N 39°15' W 076°33'0 0.0
2016-Jan-26 02:31N 39°15' W 076°33'0 0.0
2016-Jan-26 01:33N 39°15' W 076°33'0 0.0
2016-Jan-26 00:31N 39°15' W 076°33'0 0.0
2016-Jan-25 23:31N 39°15' W 076°33'0 0.0
2016-Jan-25 22:31N 39°15' W 076°33'0 0.0
2016-Jan-25 21:31N 39°15' W 076°33'0 0.0
2016-Jan-25 20:33N 39°15' W 076°33'0 0.0
2016-Jan-25 19:33N 39°15' W 076°33'0 0.0
2016-Jan-25 18:33N 39°15' W 076°33'0 0.0
2016-Jan-25 17:33N 39°15' W 076°33'0 0.0
2016-Jan-25 16:33N 39°15' W 076°33'1 1.3
2016-Jan-25 15:34N 39°14' W 076°33'8 7.9
2016-Jan-25 14:34N 39°09' W 076°25'1313.1
2016-Jan-25 13:33N 38°56' W 076°23'1919.4
2016-Jan-25 12:33N 38°37' W 076°25'2120.0
2016-Jan-25 11:30N 38°17' W 076°17'1920.3
2016-Jan-25 10:33N 37°58' W 076°11'5617.4
2016-Jan-25 07:20N 37°03' W 076°04'  

Dump ship's entire track history